Time;durP1;ratioP1;P1;durP2;ratioP2;P2;SDS_P1;SDS_P2;PMS_P1;PMS_P2;Temp;Humidity;BMP_temperature;BMP_pressure;BME280_temperature;BME280_humidity;BME280_pressure;Samples;Min_cycle;Max_cycle;Signal;HPM_P1;HPM_P2
2021/06/04 00:01:55;;;;;;;3.70;3.40;;;15.80;99.90;;;;;;478588;248;29376;-70
2021/06/04 00:03:56;;;;;;;4.10;3.80;;;15.80;99.90;;;;;;478593;248;28985;-71
2021/06/04 00:05:57;;;;;;;4.60;3.37;;;15.80;99.90;;;;;;478617;248;28979;-72
2021/06/04 00:07:58;;;;;;;3.70;3.40;;;15.80;99.90;;;;;;478609;248;28933;-71
2021/06/04 00:10:00;;;;;;;3.77;3.47;;;15.80;99.90;;;;;;478605;248;28975;-71
2021/06/04 00:12:01;;;;;;;3.70;3.40;;;15.70;99.90;;;;;;478617;243;28875;-71
2021/06/04 00:14:02;;;;;;;4.43;4.10;;;15.70;99.90;;;;;;478606;248;28985;-71
2021/06/04 00:16:03;;;;;;;3.63;3.33;;;15.70;99.90;;;;;;478598;248;28903;-72
2021/06/04 00:18:05;;;;;;;3.63;3.33;;;15.70;99.90;;;;;;478618;248;28920;-73
2021/06/04 00:20:06;;;;;;;4.83;4.10;;;15.60;99.90;;;;;;478586;248;29427;-71
2021/06/04 00:22:07;;;;;;;4.70;3.80;;;15.60;99.90;;;;;;478598;248;29342;-71
2021/06/04 00:24:08;;;;;;;4.30;3.90;;;15.60;99.90;;;;;;478616;248;29421;-71
2021/06/04 00:26:10;;;;;;;4.33;3.40;;;15.60;99.90;;;;;;478596;248;29554;-71
2021/06/04 00:28:11;;;;;;;3.47;3.17;;;15.50;99.90;;;;;;478604;248;28953;-70
2021/06/04 00:30:12;;;;;;;3.50;3.30;;;15.50;99.90;;;;;;478587;248;28994;-72
2021/06/04 00:32:13;;;;;;;3.50;3.20;;;15.50;99.90;;;;;;478610;248;28852;-70
2021/06/04 00:34:15;;;;;;;3.33;2.97;;;15.50;99.90;;;;;;478611;248;29018;-71
2021/06/04 00:36:16;;;;;;;4.30;3.60;;;15.50;99.90;;;;;;478580;248;28899;-70
2021/06/04 00:38:17;;;;;;;4.03;3.63;;;15.50;99.90;;;;;;478592;248;28930;-70
2021/06/04 00:40:19;;;;;;;3.50;3.20;;;15.40;99.90;;;;;;478606;248;29012;-71
2021/06/04 00:42:20;;;;;;;4.03;3.27;;;15.30;99.90;;;;;;478608;248;28896;-73
2021/06/04 00:44:21;;;;;;;4.70;3.40;;;15.30;99.90;;;;;;478595;248;28929;-70
2021/06/04 00:46:22;;;;;;;3.33;3.13;;;15.30;99.90;;;;;;478598;248;30150;-71
2021/06/04 00:48:24;;;;;;;3.10;2.90;;;15.30;99.90;;;;;;478588;243;29381;-70
2021/06/04 00:50:25;;;;;;;4.23;3.67;;;15.30;99.90;;;;;;478607;248;29495;-71
2021/06/04 00:52:26;;;;;;;3.47;3.27;;;15.30;99.90;;;;;;478614;248;28927;-71
2021/06/04 00:54:27;;;;;;;9.90;4.97;;;15.30;99.90;;;;;;478615;248;28981;-72
2021/06/04 00:56:29;;;;;;;4.67;4.27;;;15.10;99.90;;;;;;478585;248;28923;-72
2021/06/04 00:58:30;;;;;;;4.43;3.83;;;15.10;99.90;;;;;;478556;248;28914;-72
2021/06/04 01:00:31;;;;;;;4.17;3.87;;;15.10;99.90;;;;;;478600;248;29021;-72
2021/06/04 01:02:32;;;;;;;8.40;3.90;;;15.10;99.90;;;;;;478590;248;28915;-71
2021/06/04 01:04:34;;;;;;;3.90;3.60;;;15.10;99.90;;;;;;478619;248;28927;-72
2021/06/04 01:06:35;;;;;;;6.17;4.10;;;15.00;99.90;;;;;;478600;248;28916;-72
2021/06/04 01:08:36;;;;;;;3.80;3.40;;;15.00;99.90;;;;;;478607;248;28934;-72
2021/06/04 01:10:37;;;;;;;4.40;4.00;;;15.00;99.90;;;;;;478620;248;29618;-71
2021/06/04 01:12:39;;;;;;;3.70;3.47;;;15.00;99.90;;;;;;478613;248;29494;-69
2021/06/04 01:14:40;;;;;;;3.50;3.20;;;15.00;99.90;;;;;;478599;248;29395;-71
2021/06/04 01:16:41;;;;;;;3.70;3.37;;;15.00;99.90;;;;;;478546;248;28876;-71
2021/06/04 01:18:42;;;;;;;3.60;3.40;;;15.00;99.90;;;;;;478527;248;28867;-70
2021/06/04 01:20:44;;;;;;;3.53;3.30;;;14.90;99.90;;;;;;478613;248;28969;-71
2021/06/04 01:22:45;;;;;;;7.20;3.33;;;15.00;99.90;;;;;;478586;248;28927;-71
2021/06/04 01:24:46;;;;;;;4.60;4.20;;;14.90;99.90;;;;;;478597;248;28980;-71
2021/06/04 01:26:47;;;;;;;4.53;4.17;;;14.90;99.90;;;;;;478593;248;28972;-71
2021/06/04 01:28:49;;;;;;;4.23;3.93;;;14.80;99.90;;;;;;478558;248;28982;-71
2021/06/04 01:30:50;;;;;;;4.20;3.87;;;14.90;99.90;;;;;;478609;248;28905;-72
2021/06/04 01:32:51;;;;;;;4.03;3.50;;;14.90;99.90;;;;;;478602;248;28872;-70
2021/06/04 01:34:52;;;;;;;3.80;3.50;;;14.90;99.90;;;;;;478608;248;29358;-73
2021/06/04 01:36:54;;;;;;;3.83;3.53;;;14.90;99.90;;;;;;478608;248;29422;-72
2021/06/04 01:38:55;;;;;;;4.57;4.17;;;14.90;99.90;;;;;;478607;248;29393;-74
2021/06/04 01:40:56;;;;;;;4.23;3.93;;;14.90;99.90;;;;;;478592;248;28922;-74
2021/06/04 01:42:57;;;;;;;4.20;3.70;;;14.80;99.90;;;;;;478576;248;28853;-70
2021/06/04 01:44:59;;;;;;;4.20;3.90;;;14.90;99.90;;;;;;478603;248;28975;-71
2021/06/04 01:47:02;;;;;;;3.87;3.57;;;14.90;99.90;;;;;;478614;248;28863;-71
2021/06/04 01:49:01;;;;;;;3.57;3.33;;;14.90;99.90;;;;;;478536;248;28883;-70
2021/06/04 01:51:02;;;;;;;5.07;3.73;;;14.90;99.90;;;;;;478607;248;28679;-70
2021/06/04 01:53:04;;;;;;;4.50;4.10;;;14.90;99.90;;;;;;478614;248;28983;-70
2021/06/04 01:55:05;;;;;;;3.90;3.60;;;14.80;99.90;;;;;;478639;248;29010;-72
2021/06/04 01:57:06;;;;;;;4.43;3.87;;;14.90;99.90;;;;;;478611;248;28866;-70
2021/06/04 01:59:07;;;;;;;6.20;4.63;;;14.90;99.90;;;;;;478640;248;29463;-70
2021/06/04 02:01:09;;;;;;;4.60;4.10;;;14.80;99.90;;;;;;478645;248;30075;-71
2021/06/04 02:03:10;;;;;;;5.13;3.30;;;14.80;99.90;;;;;;478646;248;29314;-71
2021/06/04 02:05:11;;;;;;;8.57;3.50;;;14.80;99.90;;;;;;478643;248;28978;-71
2021/06/04 02:07:12;;;;;;;4.10;3.80;;;14.80;99.90;;;;;;478639;248;28986;-70
2021/06/04 02:09:14;;;;;;;5.37;3.87;;;14.80;99.90;;;;;;478645;248;28894;-70
2021/06/04 02:11:15;;;;;;;4.97;4.57;;;14.80;99.90;;;;;;478612;248;28896;-71
2021/06/04 02:13:16;;;;;;;5.73;4.70;;;14.80;99.90;;;;;;478607;248;28886;-70
2021/06/04 02:15:17;;;;;;;4.60;4.30;;;14.90;99.90;;;;;;478558;248;28919;-72
2021/06/04 02:17:19;;;;;;;5.10;4.70;;;14.90;99.90;;;;;;478619;248;28873;-71
2021/06/04 02:19:20;;;;;;;4.57;4.03;;;14.90;99.90;;;;;;478611;248;28894;-71
2021/06/04 02:21:21;;;;;;;5.03;4.63;;;14.90;99.90;;;;;;478617;248;28859;-71
2021/06/04 02:23:23;;;;;;;4.40;4.00;;;14.90;99.90;;;;;;478607;248;29589;-72
2021/06/04 02:25:24;;;;;;;6.03;5.53;;;14.90;99.90;;;;;;478596;248;29443;-72
2021/06/04 02:27:25;;;;;;;4.90;4.50;;;14.90;99.90;;;;;;478601;248;29394;-70
2021/06/04 02:29:26;;;;;;;5.77;4.60;;;14.80;99.90;;;;;;478624;248;29379;-70
2021/06/04 02:31:28;;;;;;;5.50;4.00;;;14.90;99.90;;;;;;478584;248;28961;-70
2021/06/04 02:33:29;;;;;;;4.67;4.27;;;14.90;99.90;;;;;;478597;248;28906;-71
2021/06/04 02:35:30;;;;;;;4.80;4.40;;;14.90;99.90;;;;;;478595;243;28982;-72
2021/06/04 02:37:31;;;;;;;4.50;4.10;;;14.90;99.90;;;;;;478622;248;28853;-71
2021/06/04 02:39:32;;;;;;;4.43;4.03;;;14.90;99.90;;;;;;478616;248;29009;-71
2021/06/04 02:41:34;;;;;;;5.07;3.97;;;14.90;99.90;;;;;;478603;248;28867;-71
2021/06/04 02:43:35;;;;;;;3.80;3.50;;;14.90;99.90;;;;;;478623;248;28928;-71
2021/06/04 02:45:36;;;;;;;4.10;3.80;;;14.90;99.90;;;;;;478600;248;28923;-71
2021/06/04 02:47:37;;;;;;;4.23;3.83;;;14.80;99.90;;;;;;478601;248;29330;-70
2021/06/04 02:49:39;;;;;;;4.10;3.80;;;14.80;99.90;;;;;;478611;248;29491;-71
2021/06/04 02:51:41;;;;;;;4.33;3.87;;;14.80;99.90;;;;;;478604;248;29314;-70
2021/06/04 02:53:41;;;;;;;5.00;4.50;;;14.80;99.90;;;;;;478544;248;29437;-71
2021/06/04 02:55:42;;;;;;;4.27;3.70;;;14.70;99.90;;;;;;478611;248;28906;-71
2021/06/04 02:57:44;;;;;;;5.13;4.63;;;14.70;99.90;;;;;;478609;248;28858;-70
2021/06/04 02:59:45;;;;;;;7.20;4.83;;;14.60;99.90;;;;;;478622;248;29009;-71
2021/06/04 03:01:46;;;;;;;6.90;4.87;;;14.60;99.90;;;;;;478630;248;28864;-70
2021/06/04 03:03:51;;;;;;;4.40;4.00;;;14.60;99.90;;;;;;478612;248;28916;-71
2021/06/04 03:05:49;;;;;;;4.60;4.20;;;14.60;99.90;;;;;;478375;248;29275;-72
2021/06/04 03:07:50;;;;;;;4.20;3.90;;;14.60;99.90;;;;;;478656;248;28887;-70
2021/06/04 03:09:51;;;;;;;4.70;4.33;;;14.60;99.90;;;;;;478628;248;28897;-71
2021/06/04 03:11:52;;;;;;;4.47;4.07;;;14.60;99.90;;;;;;478626;248;29426;-71
2021/06/04 03:13:54;;;;;;;5.00;3.60;;;14.60;99.90;;;;;;478653;248;29363;-71
2021/06/04 03:15:55;;;;;;;4.10;3.77;;;14.60;99.90;;;;;;478619;248;29492;-71
2021/06/04 03:17:56;;;;;;;4.20;3.33;;;14.60;99.90;;;;;;478623;248;29397;-71
2021/06/04 03:19:57;;;;;;;4.43;4.03;;;14.60;99.90;;;;;;478615;248;28898;-71
2021/06/04 03:21:59;;;;;;;7.27;4.40;;;14.50;99.90;;;;;;478610;248;28950;-71
2021/06/04 03:24:00;;;;;;;5.03;4.37;;;14.40;99.90;;;;;;478588;248;28982;-71
2021/06/04 03:26:01;;;;;;;4.73;4.33;;;14.40;99.90;;;;;;478581;248;28916;-70
2021/06/04 03:28:02;;;;;;;5.70;4.30;;;14.40;99.90;;;;;;478605;248;28851;-71
2021/06/04 03:30:04;;;;;;;4.30;4.00;;;14.50;99.90;;;;;;478606;248;28906;-71
2021/06/04 03:32:05;;;;;;;3.83;3.57;;;14.50;99.90;;;;;;478595;243;29029;-71
2021/06/04 03:34:06;;;;;;;4.57;4.17;;;14.50;99.90;;;;;;478596;248;28894;-71
2021/06/04 03:36:07;;;;;;;4.00;3.70;;;14.60;99.90;;;;;;478577;243;28869;-71
2021/06/04 03:38:09;;;;;;;4.10;3.80;;;14.70;99.90;;;;;;478580;248;29311;-70
2021/06/04 03:40:10;;;;;;;3.93;3.63;;;14.70;99.90;;;;;;478586;248;29373;-73
2021/06/04 03:42:11;;;;;;;6.03;4.20;;;14.80;99.90;;;;;;478632;248;29335;-71
2021/06/04 03:44:12;;;;;;;5.10;4.60;;;14.90;99.90;;;;;;478616;243;28925;-72
2021/06/04 03:46:14;;;;;;;5.97;4.13;;;14.80;99.90;;;;;;478622;248;28886;-71
2021/06/04 03:48:17;;;;;;;5.40;3.87;;;14.90;99.90;;;;;;478558;248;28964;-71
2021/06/04 03:50:16;;;;;;;4.10;3.80;;;14.90;99.90;;;;;;478489;248;28914;-73
2021/06/04 03:52:20;;;;;;;4.03;3.70;;;14.90;99.90;;;;;;478595;248;28852;-70
2021/06/04 03:54:19;;;;;;;6.53;4.37;;;14.90;99.90;;;;;;478463;248;28986;-72
2021/06/04 03:56:20;;;;;;;4.17;3.87;;;15.00;99.90;;;;;;478594;248;28870;-71
2021/06/04 03:58:21;;;;;;;4.93;4.13;;;15.00;99.90;;;;;;478611;248;28971;-71
2021/06/04 04:00:22;;;;;;;4.20;3.90;;;15.00;99.90;;;;;;478605;248;28924;-74
2021/06/04 04:02:24;;;;;;;5.07;3.60;;;15.10;99.90;;;;;;478573;248;29518;-71
2021/06/04 04:04:25;;;;;;;4.27;3.97;;;15.10;99.90;;;;;;478587;248;29420;-70
2021/06/04 04:06:26;;;;;;;6.73;4.50;;;15.10;99.90;;;;;;478601;248;29309;-71
2021/06/04 04:08:27;;;;;;;5.03;3.97;;;15.20;99.90;;;;;;478612;248;28900;-71
2021/06/04 04:10:29;;;;;;;4.77;4.23;;;15.20;99.90;;;;;;478582;248;28898;-73
2021/06/04 04:12:30;;;;;;;3.97;3.53;;;15.20;99.90;;;;;;478627;248;29000;-70
2021/06/04 04:14:31;;;;;;;4.10;3.80;;;15.30;99.90;;;;;;478533;248;28891;-72
2021/06/04 04:16:33;;;;;;;4.23;3.77;;;15.30;99.90;;;;;;478650;248;28918;-70
2021/06/04 04:18:34;;;;;;;4.00;3.70;;;15.30;99.90;;;;;;478638;248;28904;-70
2021/06/04 04:20:35;;;;;;;3.40;3.20;;;15.30;99.90;;;;;;478633;248;28918;-71
2021/06/04 04:22:37;;;;;;;6.33;4.10;;;15.30;99.90;;;;;;478623;248;28986;-70
2021/06/04 04:24:37;;;;;;;4.13;3.83;;;15.30;99.90;;;;;;478584;248;28990;-73
2021/06/04 04:26:39;;;;;;;4.00;3.70;;;15.30;99.90;;;;;;478608;248;29303;-70
2021/06/04 04:28:40;;;;;;;4.50;4.10;;;15.30;99.90;;;;;;478597;248;29367;-70
2021/06/04 04:30:41;;;;;;;4.20;3.70;;;15.30;99.90;;;;;;478603;248;30084;-70
2021/06/04 04:32:42;;;;;;;4.20;3.90;;;15.30;99.90;;;;;;478641;248;28865;-70
2021/06/04 04:34:44;;;;;;;3.97;3.67;;;15.30;99.90;;;;;;478603;248;28891;-71
2021/06/04 04:36:45;;;;;;;3.40;3.17;;;15.30;99.90;;;;;;478589;248;28901;-71
2021/06/04 04:38:46;;;;;;;5.00;3.87;;;15.40;99.90;;;;;;478599;248;28896;-71
2021/06/04 04:40:47;;;;;;;4.10;3.70;;;15.40;99.90;;;;;;478612;248;28958;-71
2021/06/04 04:42:49;;;;;;;3.83;3.53;;;15.40;99.90;;;;;;478593;248;28878;-70
2021/06/04 04:44:50;;;;;;;4.20;3.90;;;15.40;99.90;;;;;;478593;248;28915;-71
2021/06/04 04:46:52;;;;;;;3.70;3.40;;;15.40;99.90;;;;;;478600;248;28862;-71
2021/06/04 04:48:53;;;;;;;4.37;4.07;;;15.50;99.90;;;;;;477862;243;28907;-72
2021/06/04 04:50:54;;;;;;;3.60;3.40;;;15.50;99.90;;;;;;478633;248;28914;-73
2021/06/04 04:52:55;;;;;;;4.37;3.93;;;15.40;99.90;;;;;;478601;248;29006;-72
2021/06/04 04:54:57;;;;;;;5.77;5.17;;;15.40;99.90;;;;;;478608;248;28911;-73
2021/06/04 04:56:58;;;;;;;5.40;4.90;;;15.40;99.90;;;;;;478611;248;29330;-70
2021/06/04 04:58:59;;;;;;;4.47;4.00;;;15.40;99.90;;;;;;478596;248;29434;-70
2021/06/04 05:01:02;;;;;;;4.03;3.70;;;15.50;99.90;;;;;;478588;248;29394;-72
2021/06/04 05:03:02;;;;;;;3.87;3.63;;;15.60;99.90;;;;;;478519;248;29364;-69
2021/06/04 05:05:03;;;;;;;4.70;4.30;;;15.70;99.90;;;;;;478578;248;28899;-73
2021/06/04 05:07:04;;;;;;;6.20;3.43;;;15.80;99.90;;;;;;478592;248;28875;-70
2021/06/04 05:09:05;;;;;;;3.77;3.47;;;15.80;99.90;;;;;;478594;248;28922;-70
2021/06/04 05:11:07;;;;;;;4.60;4.20;;;15.80;99.90;;;;;;478599;248;29009;-70
2021/06/04 05:13:08;;;;;;;3.90;3.60;;;15.80;99.90;;;;;;478620;248;28890;-71
2021/06/04 05:15:09;;;;;;;4.40;4.00;;;15.80;99.90;;;;;;478592;248;28900;-73
2021/06/04 05:17:12;;;;;;;4.53;4.10;;;15.90;99.90;;;;;;478612;248;28863;-72
2021/06/04 05:19:12;;;;;;;7.10;5.57;;;15.90;99.90;;;;;;478511;248;28902;-72
2021/06/04 05:21:13;;;;;;;6.80;5.00;;;15.90;99.90;;;;;;478579;248;28892;-74
2021/06/04 05:23:15;;;;;;;4.30;4.00;;;15.90;99.90;;;;;;478593;248;29360;-72
2021/06/04 05:25:15;;;;;;;4.17;3.83;;;16.00;99.90;;;;;;478552;248;29399;-70
2021/06/04 05:27:17;;;;;;;3.87;3.57;;;16.20;99.90;;;;;;478593;248;29394;-73
2021/06/04 05:29:18;;;;;;;4.23;3.93;;;16.30;99.90;;;;;;478611;248;28917;-72
2021/06/04 05:31:19;;;;;;;4.13;3.77;;;16.30;99.90;;;;;;478596;248;28960;-72
2021/06/04 05:33:20;;;;;;;3.80;3.50;;;16.30;99.90;;;;;;478640;248;28878;-72
2021/06/04 05:35:22;;;;;;;4.00;3.60;;;16.30;99.90;;;;;;478624;248;28899;-74
2021/06/04 05:37:23;;;;;;;3.80;3.50;;;16.30;99.90;;;;;;478619;248;29266;-73
2021/06/04 05:39:24;;;;;;;4.60;3.20;;;16.30;99.90;;;;;;478620;248;28930;-72
2021/06/04 05:41:25;;;;;;;4.23;3.83;;;16.40;99.90;;;;;;478408;248;29033;-71
2021/06/04 05:43:27;;;;;;;4.33;3.93;;;16.40;99.90;;;;;;478620;248;28937;-71
2021/06/04 05:45:28;;;;;;;4.10;3.70;;;16.50;99.90;;;;;;478587;248;28991;-72
2021/06/04 05:47:29;;;;;;;4.10;3.80;;;16.50;99.90;;;;;;478596;248;29356;-71
2021/06/04 05:49:30;;;;;;;3.97;3.57;;;16.60;99.90;;;;;;478590;248;29479;-71
2021/06/04 05:51:32;;;;;;;4.43;4.00;;;16.60;99.90;;;;;;478595;248;29307;-70
2021/06/04 05:53:33;;;;;;;4.10;3.80;;;16.60;99.90;;;;;;478580;248;28863;-72
2021/06/04 05:55:35;;;;;;;3.77;3.47;;;16.80;99.90;;;;;;478605;248;28993;-71
2021/06/04 05:57:35;;;;;;;3.83;3.53;;;16.90;99.90;;;;;;478514;248;28897;-71
2021/06/04 05:59:37;;;;;;;3.97;3.63;;;16.90;99.90;;;;;;478596;248;28906;-71
2021/06/04 06:01:38;;;;;;;4.33;3.93;;;17.00;99.90;;;;;;478509;243;28832;-72
2021/06/04 06:03:39;;;;;;;4.97;4.60;;;17.10;99.90;;;;;;486079;242;28871;-71
2021/06/04 06:05:40;;;;;;;3.60;3.40;;;17.10;99.90;;;;;;493379;241;28811;-73
2021/06/04 06:07:42;;;;;;;4.17;3.77;;;17.10;99.90;;;;;;493295;241;28667;-69
2021/06/04 06:09:43;;;;;;;4.60;4.20;;;17.10;99.90;;;;;;493353;241;28704;-73
2021/06/04 06:11:44;;;;;;;4.23;3.93;;;17.10;99.90;;;;;;493297;241;29261;-70
2021/06/04 06:13:46;;;;;;;4.30;3.90;;;17.20;99.90;;;;;;493300;241;29298;-71
2021/06/04 06:15:47;;;;;;;4.53;4.17;;;17.20;99.90;;;;;;493410;241;29276;-71
2021/06/04 06:17:48;;;;;;;4.07;3.77;;;17.30;99.90;;;;;;493352;241;28667;-70
2021/06/04 06:19:49;;;;;;;4.63;4.23;;;17.50;99.90;;;;;;493381;241;28774;-73
2021/06/04 06:21:51;;;;;;;3.30;3.07;;;17.50;99.90;;;;;;493377;241;28698;-71
2021/06/04 06:23:52;;;;;;;4.13;3.83;;;17.50;99.90;;;;;;493310;241;28714;-70
2021/06/04 06:25:55;;;;;;;4.37;4.00;;;17.60;99.90;;;;;;493400;241;28722;-72
2021/06/04 06:27:54;;;;;;;3.83;3.40;;;17.70;99.90;;;;;;493256;241;28719;-70
2021/06/04 06:29:55;;;;;;;4.93;3.30;;;17.70;99.90;;;;;;493409;241;28796;-72
2021/06/04 06:31:59;;;;;;;4.30;3.97;;;17.70;99.90;;;;;;493418;241;28675;-70
2021/06/04 06:33:58;;;;;;;5.10;3.53;;;17.80;99.90;;;;;;493222;241;28754;-71
2021/06/04 06:35:59;;;;;;;3.80;3.50;;;17.90;99.90;;;;;;493422;241;29351;-72
2021/06/04 06:38:00;;;;;;;4.03;3.73;;;18.00;99.90;;;;;;493450;241;29103;-70
2021/06/04 06:40:02;;;;;;;3.60;3.40;;;18.00;99.90;;;;;;493401;241;29185;-72
2021/06/04 06:42:03;;;;;;;3.97;3.60;;;18.10;99.90;;;;;;493442;241;28676;-70
2021/06/04 06:44:04;;;;;;;4.23;3.83;;;18.10;99.90;;;;;;493414;241;28766;-71
2021/06/04 06:46:05;;;;;;;3.50;3.20;;;18.20;99.90;;;;;;493372;241;28732;-70
2021/06/04 06:48:07;;;;;;;3.90;3.60;;;18.40;99.90;;;;;;493426;241;28651;-72
2021/06/04 06:50:08;;;;;;;3.70;3.40;;;18.50;99.90;;;;;;493361;241;28762;-71
2021/06/04 06:52:09;;;;;;;4.40;4.00;;;18.40;99.90;;;;;;493404;241;28761;-71
2021/06/04 06:54:14;;;;;;;3.80;3.37;;;18.50;99.90;;;;;;493380;241;28786;-71
2021/06/04 06:56:12;;;;;;;3.33;3.13;;;18.40;99.90;;;;;;493087;241;28673;-72
2021/06/04 06:58:13;;;;;;;3.60;3.40;;;18.40;99.90;;;;;;493419;241;28706;-72
2021/06/04 07:00:14;;;;;;;3.93;3.37;;;18.40;99.90;;;;;;493420;241;29190;-72
2021/06/04 07:02:18;;;;;;;3.50;3.30;;;18.40;99.90;;;;;;493369;241;29229;-70
2021/06/04 07:04:17;;;;;;;3.73;3.43;;;18.40;99.90;;;;;;493174;241;29296;-73
2021/06/04 07:06:18;;;;;;;3.50;3.20;;;18.40;99.90;;;;;;493373;241;28685;-70
2021/06/04 07:08:19;;;;;;;3.87;3.57;;;18.40;99.90;;;;;;493416;241;28671;-71
2021/06/04 07:10:20;;;;;;;3.80;3.50;;;18.40;99.90;;;;;;493421;241;28774;-71
2021/06/04 07:12:22;;;;;;;3.47;3.27;;;18.40;99.90;;;;;;493385;241;28668;-70
2021/06/04 07:14:23;;;;;;;4.30;3.90;;;18.40;99.90;;;;;;493405;241;28706;-70
2021/06/04 07:16:24;;;;;;;3.90;3.50;;;18.50;99.90;;;;;;493379;241;28667;-72
2021/06/04 07:18:25;;;;;;;3.20;3.00;;;18.60;99.90;;;;;;493354;241;28723;-72
2021/06/04 07:20:27;;;;;;;3.80;3.50;;;18.50;99.90;;;;;;493405;241;28774;-73
2021/06/04 07:22:31;;;;;;;3.57;3.37;;;18.50;99.90;;;;;;484360;245;28800;-72
2021/06/04 07:24:29;;;;;;;4.47;3.50;;;18.50;99.90;;;;;;490087;241;29372;-72
2021/06/04 07:26:30;;;;;;;4.47;3.57;;;18.50;99.90;;;;;;484549;245;29295;-71
2021/06/04 07:28:32;;;;;;;3.30;3.00;;;18.60;99.90;;;;;;484482;242;30131;-72
2021/06/04 07:30:33;;;;;;;3.10;2.80;;;18.60;99.90;;;;;;482805;242;28886;-73
2021/06/04 07:32:34;;;;;;;4.27;3.87;;;18.60;99.90;;;;;;478995;242;28808;-70
2021/06/04 07:34:36;;;;;;;3.70;3.40;;;18.60;99.90;;;;;;488144;243;28780;-71
2021/06/04 07:36:37;;;;;;;3.90;3.60;;;18.60;99.90;;;;;;488557;242;28701;-71
2021/06/04 07:38:38;;;;;;;4.37;3.97;;;18.60;99.90;;;;;;488218;242;28775;-70
2021/06/04 07:40:39;;;;;;;3.60;3.30;;;18.60;99.90;;;;;;488404;242;29107;-71
2021/06/04 07:42:41;;;;;;;4.70;3.57;;;18.70;99.90;;;;;;488576;242;28720;-70
2021/06/04 07:44:42;;;;;;;3.63;3.33;;;18.70;99.90;;;;;;488559;242;28766;-70
2021/06/04 07:46:43;;;;;;;3.93;3.67;;;18.70;99.90;;;;;;488530;242;29197;-73
2021/06/04 07:48:44;;;;;;;3.50;3.20;;;18.80;99.90;;;;;;488601;242;29232;-72
2021/06/04 07:50:46;;;;;;;3.63;3.33;;;18.80;99.90;;;;;;488603;242;29291;-71
2021/06/04 07:52:47;;;;;;;3.30;3.00;;;18.80;99.90;;;;;;488611;242;28721;-70
2021/06/04 07:54:48;;;;;;;4.37;3.23;;;18.90;99.90;;;;;;488578;242;28759;-73
2021/06/04 07:56:49;;;;;;;4.13;3.07;;;19.00;99.90;;;;;;488506;242;28803;-73
2021/06/04 07:58:51;;;;;;;5.00;3.43;;;19.10;99.90;;;;;;488520;242;28807;-71
2021/06/04 08:00:52;;;;;;;3.50;3.20;;;19.30;99.90;;;;;;488572;242;28736;-72
2021/06/04 08:02:53;;;;;;;4.03;2.90;;;19.40;99.90;;;;;;488618;242;28726;-72
2021/06/04 08:04:54;;;;;;;5.53;2.63;;;19.40;99.90;;;;;;488598;242;28819;-74
2021/06/04 08:06:56;;;;;;;4.20;2.90;;;19.50;99.90;;;;;;488621;242;28756;-73
2021/06/04 08:08:57;;;;;;;2.60;2.40;;;19.60;99.90;;;;;;488610;242;28811;-73
2021/06/04 08:10:58;;;;;;;3.27;2.90;;;19.70;99.90;;;;;;488579;242;30232;-70
2021/06/04 08:12:59;;;;;;;2.60;2.37;;;19.80;99.90;;;;;;488605;242;29278;-72
2021/06/04 08:15:01;;;;;;;3.07;2.77;;;19.90;99.90;;;;;;488603;242;29328;-72
2021/06/04 08:17:02;;;;;;;3.10;2.90;;;20.10;99.90;;;;;;488603;242;28792;-70
2021/06/04 08:19:03;;;;;;;2.90;2.70;;;20.10;99.90;;;;;;488589;242;28745;-71
2021/06/04 08:21:04;;;;;;;4.00;2.77;;;20.20;99.90;;;;;;488572;243;28781;-73
2021/06/04 08:23:06;;;;;;;2.97;2.67;;;20.30;99.90;;;;;;488598;242;28770;-73
2021/06/04 08:25:07;;;;;;;3.00;2.70;;;20.30;99.90;;;;;;488616;242;28744;-71
2021/06/04 08:27:08;;;;;;;5.20;2.80;;;20.30;99.90;;;;;;488587;242;28778;-70
2021/06/04 08:29:09;;;;;;;3.67;2.80;;;20.40;99.90;;;;;;488617;242;28815;-70
2021/06/04 08:31:11;;;;;;;3.90;2.87;;;20.50;99.90;;;;;;488599;242;28812;-70
2021/06/04 08:33:12;;;;;;;3.80;2.80;;;20.50;99.90;;;;;;488581;242;28764;-70
2021/06/04 08:35:13;;;;;;;3.23;2.93;;;20.60;99.90;;;;;;488597;242;29207;-71
2021/06/04 08:37:14;;;;;;;3.47;3.03;;;20.80;99.90;;;;;;488605;242;29174;-72
2021/06/04 08:39:17;;;;;;;4.40;3.00;;;20.70;99.90;;;;;;488612;242;29229;-72
2021/06/04 08:41:17;;;;;;;3.00;2.60;;;20.80;99.90;;;;;;488574;242;28720;-70
2021/06/04 08:43:18;;;;;;;3.90;2.97;;;20.90;99.90;;;;;;488584;242;28748;-73
2021/06/04 08:45:19;;;;;;;3.13;2.83;;;20.90;99.90;;;;;;488597;242;28822;-73
2021/06/04 08:47:21;;;;;;;4.10;3.07;;;21.10;99.90;;;;;;488591;242;28737;-71
2021/06/04 08:49:22;;;;;;;7.10;3.27;;;21.10;99.90;;;;;;488595;242;28756;-72
2021/06/04 08:51:23;;;;;;;4.30;3.60;;;21.10;99.90;;;;;;488609;242;28839;-71
2021/06/04 08:53:24;;;;;;;3.90;3.50;;;21.10;99.90;;;;;;488599;243;28842;-72
2021/06/04 08:55:26;;;;;;;3.83;3.40;;;21.20;99.90;;;;;;488519;242;29183;-74
2021/06/04 08:57:27;;;;;;;4.20;2.97;;;21.30;99.90;;;;;;488615;242;28793;-72
2021/06/04 08:59:28;;;;;;;3.70;3.40;;;21.30;99.90;;;;;;488625;242;29311;-72
2021/06/04 09:01:29;;;;;;;3.17;2.90;;;21.40;99.90;;;;;;487168;242;29260;-71
2021/06/04 09:03:31;;;;;;;3.17;2.87;;;21.40;99.90;;;;;;482934;246;29272;-72
2021/06/04 09:05:32;;;;;;;3.37;3.17;;;21.40;99.90;;;;;;491870;242;29193;-73
2021/06/04 09:07:33;;;;;;;3.50;3.20;;;21.40;99.90;;;;;;491838;242;29271;-73
2021/06/04 09:09:34;;;;;;;3.93;2.83;;;21.40;99.90;;;;;;491872;242;28714;-72
2021/06/04 09:11:36;;;;;;;3.10;2.90;;;21.40;99.90;;;;;;491875;242;28809;-72
2021/06/04 09:13:37;;;;;;;5.20;3.43;;;21.40;99.90;;;;;;491833;242;28722;-73
2021/06/04 09:15:38;;;;;;;2.50;2.37;;;21.40;99.90;;;;;;491536;242;28914;-74
2021/06/04 09:17:39;;;;;;;3.83;3.10;;;21.40;99.90;;;;;;491507;242;28826;-72
2021/06/04 09:19:41;;;;;;;6.10;3.20;;;21.60;99.90;;;;;;491693;242;28829;-72
2021/06/04 09:21:42;;;;;;;5.30;3.20;;;21.70;99.90;;;;;;491706;242;28773;-71
2021/06/04 09:23:43;;;;;;;4.40;3.30;;;21.60;99.90;;;;;;491820;242;28727;-70
2021/06/04 09:25:44;;;;;;;5.97;2.90;;;21.60;99.90;;;;;;491860;242;29240;-74
2021/06/04 09:27:47;;;;;;;4.67;2.90;;;21.50;99.90;;;;;;491834;242;29288;-72
2021/06/04 09:29:47;;;;;;;3.30;2.97;;;21.50;99.90;;;;;;491829;242;29250;-72
2021/06/04 09:31:48;;;;;;;4.40;3.00;;;21.50;99.90;;;;;;491890;242;29422;-72
2021/06/04 09:33:49;;;;;;;3.80;3.17;;;21.60;99.90;;;;;;491885;242;28707;-72
2021/06/04 09:35:51;;;;;;;3.50;3.17;;;21.70;99.90;;;;;;491843;242;28719;-71
2021/06/04 09:37:52;;;;;;;3.63;2.57;;;21.70;99.90;;;;;;491872;242;28749;-71
2021/06/04 09:39:53;;;;;;;2.87;2.67;;;21.70;99.90;;;;;;491600;241;28830;-71
2021/06/04 09:41:54;;;;;;;4.70;2.93;;;21.80;99.90;;;;;;491731;242;28754;-72
2021/06/04 09:43:56;;;;;;;4.50;3.10;;;21.80;99.90;;;;;;491901;242;28823;-72
2021/06/04 09:45:57;;;;;;;3.07;2.87;;;22.00;99.90;;;;;;491875;242;28782;-72
2021/06/04 09:47:58;;;;;;;3.10;2.90;;;21.90;99.90;;;;;;491869;242;28724;-72
2021/06/04 09:49:59;;;;;;;3.60;3.27;;;21.90;99.90;;;;;;491882;242;29149;-70
2021/06/04 09:52:01;;;;;;;4.37;3.17;;;22.00;99.90;;;;;;491882;242;29231;-71
2021/06/04 09:54:02;;;;;;;4.13;3.70;;;22.10;99.90;;;;;;491902;242;29194;-72
2021/06/04 09:56:03;;;;;;;4.10;3.70;;;22.20;99.90;;;;;;491900;242;29257;-72
2021/06/04 09:58:04;;;;;;;4.47;3.67;;;22.30;99.90;;;;;;491921;242;28787;-72
2021/06/04 10:00:06;;;;;;;5.70;3.70;;;22.20;99.90;;;;;;491904;242;28699;-72
2021/06/04 10:02:07;;;;;;;3.60;3.30;;;22.30;99.90;;;;;;491850;242;28784;-72
2021/06/04 10:04:08;;;;;;;6.60;3.60;;;22.30;99.90;;;;;;491925;242;28692;-72
2021/06/04 10:06:11;;;;;;;4.37;3.83;;;22.40;99.90;;;;;;482937;246;28897;-72
2021/06/04 10:08:11;;;;;;;3.67;3.33;;;22.60;99.90;;;;;;491866;242;28664;-72
2021/06/04 10:10:12;;;;;;;4.50;3.93;;;22.70;99.90;;;;;;491945;242;28873;-71
2021/06/04 10:12:13;;;;;;;3.93;3.43;;;22.80;99.90;;;;;;491955;242;28669;-72
2021/06/04 10:16:28;;;;;;;3.87;3.20;;;22.90;99.90;;;;;;491901;242;28795;-72
2021/06/04 10:18:23;;;;;;;6.93;2.97;;;23.00;99.90;;;;;;491475;242;28664;-71
2021/06/04 10:20:24;;;;;;;4.00;3.43;;;23.00;99.90;;;;;;491936;242;28716;-72
2021/06/04 10:22:26;;;;;;;3.53;3.20;;;23.10;99.90;;;;;;491924;242;28703;-72
2021/06/04 10:24:28;;;;;;;4.63;3.27;;;23.10;99.90;;;;;;491914;242;28787;-73
2021/06/04 10:26:28;;;;;;;6.30;3.80;;;23.20;99.90;;;;;;491832;242;28744;-73
2021/06/04 10:28:29;;;;;;;5.27;3.27;;;23.30;99.90;;;;;;491926;242;28660;-72
2021/06/04 10:30:31;;;;;;;4.30;3.67;;;23.40;99.90;;;;;;491910;242;28791;-73
2021/06/04 10:32:32;;;;;;;3.40;3.10;;;23.40;99.90;;;;;;491923;242;29143;-72
2021/06/04 10:34:33;;;;;;;3.17;2.97;;;23.40;99.90;;;;;;491933;242;29277;-72